Montreal, Missouri
Current Conditions -  °F | °C
As of 9:35 PM on Saturday 25 Oct 2014 (Local Time) from KH21 Reporting Station
Clear Clear  
Wind Chill: 17°   Ceiling: Unl
Heat Index: 17°   Visibility: 10mi
Dew Point: 15°   Wind: 3mph
Humidity: 88%   Direction: 140°SE
Pressure: 30.03"   Gusts: NA
Location:  37.97°N, 92.59°W
Report Text: KH21 260235Z AUTO 14003KT 10SM CLR 17/15 A3003 RMK AO2
Loading
Personal Weather Stations






























Interactive Weather Map
Tropical Storm Tracking
New forecast layout! Learn more

10-Day Weather Forecast

Advertisements
Track Severe Weather on mobile